createdAt,value
2023-04-11T00:01:09.844Z,13.5
2023-04-11T00:21:17.180Z,13.3
2023-04-11T00:41:09.539Z,13.1
2023-04-11T01:01:13.404Z,12.8
2023-04-11T01:21:09.760Z,12.6
2023-04-11T01:41:07.620Z,12.6
2023-04-11T02:01:07.584Z,12.6
2023-04-11T02:21:07.678Z,12.5
2023-04-11T02:41:08.563Z,12.4
2023-04-11T03:00:50.363Z,12.4
2023-04-11T03:20:47.032Z,12.3
2023-04-11T03:40:51.591Z,11.7
2023-04-11T04:01:08.863Z,10.8
2023-04-11T04:20:46.545Z,10.8
2023-04-11T04:40:50.372Z,10.5
2023-04-11T05:00:51.127Z,10.2
2023-04-11T05:20:48.157Z,10.3
2023-04-11T05:41:13.924Z,8.7
2023-04-11T06:01:09.615Z,8.7
2023-04-11T06:21:10.764Z,8.9
2023-04-11T06:41:13.690Z,9.1
2023-04-11T07:01:13.013Z,9
2023-04-11T07:21:08.320Z,8.9
2023-04-11T07:41:09.035Z,9
2023-04-11T08:01:12.254Z,9.4
2023-04-11T08:21:15.135Z,9.6
2023-04-11T08:41:18.914Z,9.6
2023-04-11T09:01:07.394Z,9.5
2023-04-11T09:21:07.831Z,9.6
2023-04-11T09:41:07.286Z,9.6
2023-04-11T10:01:07.551Z,9.5
2023-04-11T10:21:14.678Z,9.9
2023-04-11T10:41:08.890Z,9.6
2023-04-11T11:01:10.501Z,9.6
2023-04-11T11:21:13.971Z,10.4
2023-04-11T11:41:17.855Z,10.2
2023-04-11T12:01:10.443Z,10.8
2023-04-11T12:21:07.551Z,10.7
2023-04-11T12:41:42.531Z,11.1
2023-04-11T13:01:08.433Z,11.3
2023-04-11T13:21:09.939Z,11.8
2023-04-11T13:41:07.041Z,11.8
2023-04-11T14:01:11.794Z,11.1
2023-04-11T14:21:12.483Z,11
2023-04-11T14:41:07.958Z,11.1
2023-04-11T15:01:06.453Z,11.2
2023-04-11T15:21:13.637Z,11.3
2023-04-11T15:41:12.194Z,11.2
2023-04-11T16:01:07.856Z,11.3
2023-04-11T16:21:06.996Z,11.2
2023-04-11T16:41:08.920Z,11.2
2023-04-11T17:01:08.507Z,11.2
2023-04-11T17:21:14.880Z,11.1
2023-04-11T17:41:26.672Z,11.1
2023-04-11T18:01:14.399Z,11
2023-04-11T18:20:52.429Z,10.7
2023-04-11T18:40:55.662Z,10.5
2023-04-11T19:00:46.917Z,10.5
2023-04-11T19:20:54.555Z,10.4
2023-04-11T19:40:46.666Z,10.3
2023-04-11T20:00:47.653Z,10
2023-04-11T20:20:50.689Z,9.9
2023-04-11T20:40:49.450Z,9.9
2023-04-11T21:00:52.449Z,9.8
2023-04-11T21:20:46.119Z,9.5
2023-04-11T21:40:46.841Z,9.4
2023-04-11T22:00:50.273Z,9.7
2023-04-11T22:20:47.714Z,9.6
2023-04-11T22:40:46.209Z,9.6
2023-04-11T23:00:48.369Z,9.5
2023-04-11T23:21:10.124Z,9.4
2023-04-11T23:41:05.343Z,9.4
